Aeroporto :
LOGIN :

Iscrizione | Disclaimer

   EN    FR    IT 

 










Sommario :    VFR   VFR Marginale   IFR   IFR Intensivo   IFR Molto Intensivo
Visibilità : 
Base nubi : 
>= 8 km
>= 3000ft
5 / 8 km
1000 / 3000 ft
1500m / 5 km
500 / 1000 ft
800 / 1500m
200 / 500 ft
< 800m
< 200 ft
Simboli :   Temporali  Nebbia  Neve Forte  Precipitazioni Forti  Vento > 20 kt
SIGMETs :   Varie  Temporali  Ghiacco  Turbolenza  Onda orograficha  Ceneri Vulcaniche






- Altitudine del aeroporto : 616 ft
- Codice IATA : PUF


LFBP - Pau

ULTIMO METAR :
  • 272200Z AUTO 25004KT 6000 -DZ BKN005 OVC015 11/11 Q1022 NOSIG

METARs OBSOLETI :
  • 272130Z AUTO 25005KT 9000 -RA BKN007 BKN012 OVC025 11/11 Q1021 NOSIG
  • 272100Z AUTO 26007KT 5000 -RA BR OVC006 11/10 Q1021 NOSIG
  • 272030Z AUTO 26010KT 9999 OVC008 11/11 Q1021 NOSIG
  • 272000Z AUTO 27012KT 9999 BKN009 BKN017 BKN027 11/11 Q1021 NOSIG
  • 271930Z AUTO 28013KT 9999 -RADZ FEW005/// BKN009/// BKN013/// ///TCU 11/11 Q1020 BECMG BKN009 OVC020

TAF AMD TAF LFBP
Valido dal 27 a 22 ore il 28 a 18 ore UTC


272213Z 2722/2818 24006KT 5000 -RA BKN009 OVC020
TEMPO 2722/2724 2500 RA OVC005
BECMG 2804/2806 9999 NSW BKN012
BECMG 2808/2810 CAVOK
BECMG 2816/2818 09010KT



MetMap, La meteo Aeronautica in un colpo d'occhio ! - Copyright ORBIFLY Dicembre 2007 - Disclaimer

ORBIFLY MET'MAP TEAM :

Programmazione e sviluppo : Alexandra Zaïnal
Concezione : Baudouin d'Aumeries
Aiuto per la programmazione : Marc-Olivier Méhu
Supporto tecnico e logistico : Manuel Goepfert
Aiuto per la traduzione : Arnaldo La Scala

Contatto : metmap@orbifly.com




FONTI E CREDITI :

   NOAA